Time;durP1;ratioP1;P1;durP2;ratioP2;P2;SDS_P1;SDS_P2;PMS_P1;PMS_P2;Temp;Humidity;BMP_temperature;BMP_pressure;BME280_temperature;BME280_humidity;BME280_pressure;Samples;Min_cycle;Max_cycle;Signal;HPM_P1;HPM_P2
2023/03/02 00:01:19;;;;;;;53.13;35.70;;;;;;;13.34;100.00;101157.06;2099908;28;20400;-80
2023/03/02 00:02:41;;;;;;;51.30;33.20;;;;;;;13.39;100.00;101163.28;2086760;28;20080;-79
2023/03/02 00:04:06;;;;;;;60.25;43.42;;;;;;;13.48;100.00;101162.50;2092700;28;20151;-79
2023/03/02 00:05:29;;;;;;;84.97;63.60;;;;;;;13.58;100.00;101156.44;2095220;28;20048;-80
2023/03/02 00:06:55;;;;;;;46.85;28.60;;;;;;;13.70;100.00;101151.25;2086825;28;20049;-79
2023/03/02 00:08:18;;;;;;;38.33;21.13;;;;;;;13.81;100.00;101159.28;2101653;28;20055;-80
2023/03/02 00:09:41;;;;;;;37.72;18.88;;;;;;;13.86;100.00;101154.91;2103429;28;20052;-80
2023/03/02 00:11:03;;;;;;;36.95;18.48;;;;;;;13.90;100.00;101154.06;2086725;28;20156;-80
2023/03/02 00:12:27;;;;;;;29.42;17.25;;;;;;;13.92;100.00;101150.53;2086724;28;20049;-79
2023/03/02 00:13:49;;;;;;;31.20;18.10;;;;;;;13.95;100.00;101157.63;2087110;28;20044;-79
2023/03/02 00:15:12;;;;;;;43.10;19.13;;;;;;;13.98;100.00;101151.47;2086937;28;20473;-79
2023/03/02 00:16:36;;;;;;;34.45;17.15;;;;;;;14.04;100.00;101151.53;2079034;28;20624;-79
2023/03/02 00:17:57;;;;;;;33.65;18.13;;;;;;;14.05;100.00;101154.16;2084719;28;20056;-80
2023/03/02 00:19:20;;;;;;;35.08;17.70;;;;;;;14.07;100.00;101155.06;2088020;28;20053;-78
2023/03/02 00:20:42;;;;;;;37.80;17.45;;;;;;;14.11;100.00;101163.97;2095260;28;20048;-80
2023/03/02 00:22:05;;;;;;;32.78;16.90;;;;;;;14.11;100.00;101170.13;2078632;28;20049;-79
2023/03/02 00:23:26;;;;;;;34.75;16.58;;;;;;;14.15;100.00;101166.66;2087061;28;20503;-79
2023/03/02 00:24:49;;;;;;;35.80;16.40;;;;;;;14.19;100.00;101160.47;2090276;28;20065;-79
2023/03/02 00:26:11;;;;;;;34.35;17.30;;;;;;;14.22;100.00;101155.19;2086448;28;20072;-79
2023/03/02 00:27:33;;;;;;;33.80;16.55;;;;;;;14.26;100.00;101156.09;2083417;28;20045;-79
2023/03/02 00:28:56;;;;;;;34.80;17.30;;;;;;;14.26;100.00;101159.63;2081972;28;20452;-79
2023/03/02 00:30:18;;;;;;;29.58;16.02;;;;;;;14.27;100.00;101164.06;2083269;28;20044;-79
2023/03/02 00:31:41;;;;;;;41.55;17.38;;;;;;;14.30;100.00;101164.13;2083889;28;20135;-79
2023/03/02 00:33:03;;;;;;;32.80;16.90;;;;;;;14.30;100.00;101161.47;2093682;28;20040;-79
2023/03/02 00:34:25;;;;;;;35.92;17.55;;;;;;;14.34;100.00;101157.03;2105817;28;20055;-79
2023/03/02 00:35:47;;;;;;;37.03;18.33;;;;;;;14.37;100.00;101151.75;2097652;28;20184;-79
2023/03/02 00:37:09;;;;;;;36.80;17.38;;;;;;;14.36;100.00;101148.22;2092890;28;20053;-79
2023/03/02 00:38:31;;;;;;;36.28;18.77;;;;;;;14.36;100.00;101147.31;2093951;28;20048;-79
2023/03/02 00:39:52;;;;;;;40.50;21.27;;;;;;;14.38;100.00;101144.69;2083921;28;20152;-79
2023/03/02 00:41:16;;;;;;;40.60;20.23;;;;;;;14.43;100.00;101141.22;2083195;28;20401;-79
2023/03/02 00:42:39;;;;;;;37.50;20.45;;;;;;;14.48;100.00;101141.22;2083953;28;20060;-79
2023/03/02 00:44:01;;;;;;;46.00;21.58;;;;;;;14.54;100.00;101138.59;2084731;28;20033;-79
2023/03/02 00:45:24;;;;;;;43.65;21.02;;;;;;;14.57;100.00;101138.63;2092290;28;20045;-80
2023/03/02 00:46:46;;;;;;;42.78;21.55;;;;;;;14.62;100.00;101137.78;2093837;28;20094;-79
2023/03/02 00:48:10;;;;;;;35.97;20.52;;;;;;;14.67;100.00;101141.31;2094681;28;20122;-79
2023/03/02 00:49:31;;;;;;;41.53;21.70;;;;;;;14.71;100.00;101140.44;2080742;28;20053;-79
2023/03/02 00:50:53;;;;;;;46.35;19.60;;;;;;;14.68;100.00;101137.78;2086462;28;20055;-80
2023/03/02 00:52:15;;;;;;;42.10;20.48;;;;;;;14.61;100.00;101135.09;2085545;28;20044;-79
2023/03/02 00:53:38;;;;;;;38.13;19.42;;;;;;;14.54;100.00;101135.94;2099325;28;20059;-79
2023/03/02 00:54:59;;;;;;;40.92;19.70;;;;;;;14.42;100.00;101138.53;2088681;28;20045;-79
2023/03/02 00:56:22;;;;;;;38.28;19.77;;;;;;;14.31;100.00;101135.75;2095855;28;20040;-79
2023/03/02 00:57:53;;;;;;;44.58;19.83;;;;;;;14.26;100.00;101140.16;2078539;28;20038;-79
2023/03/02 00:59:26;;;;;;;40.00;19.53;;;;;;;14.22;100.00;101144.56;2083665;28;20456;-79
2023/03/02 01:00:55;;;;;;;44.05;19.65;;;;;;;14.18;100.00;101134.78;2093920;28;20300;-79
2023/03/02 01:02:20;;;;;;;40.88;19.98;;;;;;;14.19;100.00;101135.69;2078365;28;20053;-79
2023/03/02 01:03:43;;;;;;;40.20;20.23;;;;;;;14.16;100.00;101135.69;2075416;28;20080;-79
2023/03/02 01:05:05;;;;;;;47.85;21.25;;;;;;;14.12;100.00;101137.41;2084108;28;20179;-80
2023/03/02 01:06:27;;;;;;;;;;;;;;;14.09;100.00;101139.16;2086588;28;20053;-79
2023/03/02 01:07:49;;;;;;;45.05;21.25;;;;;;;14.10;100.00;101132.97;2088924;28;19927;-80
2023/03/02 01:09:11;;;;;;;44.30;21.50;;;;;;;14.15;100.00;101126.81;2082876;28;20049;-80
2023/03/02 01:10:33;;;;;;;44.42;22.50;;;;;;;14.27;100.00;101132.22;2083820;28;20501;-80
2023/03/02 01:11:56;;;;;;;44.83;22.80;;;;;;;14.37;100.00;101125.19;2082443;28;20087;-79
2023/03/02 01:13:19;;;;;;;44.47;22.58;;;;;;;14.47;100.00;101121.72;2099209;28;20523;-79
2023/03/02 01:14:44;;;;;;;46.75;23.45;;;;;;;14.58;100.00;101117.34;2086445;28;20041;-79
2023/03/02 01:16:07;;;;;;;41.65;22.92;;;;;;;14.65;100.00;101120.94;2093610;28;20048;-79
2023/03/02 01:17:32;;;;;;;44.60;22.40;;;;;;;14.72;100.00;101114.75;2088051;28;20049;-80
2023/03/02 01:18:56;;;;;;;46.25;21.85;;;;;;;14.74;100.00;101113.91;2091458;28;20049;-79
2023/03/02 01:20:18;;;;;;;37.72;21.10;;;;;;;14.79;100.00;101113.03;2097208;28;20044;-79
2023/03/02 01:21:40;;;;;;;40.88;21.20;;;;;;;14.80;100.00;101110.38;2096255;28;20091;-80
2023/03/02 01:23:03;;;;;;;39.83;21.63;;;;;;;14.83;100.00;101102.44;2093266;28;20047;-79
2023/03/02 01:24:24;;;;;;;44.22;22.63;;;;;;;14.87;100.00;101100.66;2086372;28;20505;-80
2023/03/02 01:25:47;;;;;;;44.25;21.95;;;;;;;14.91;100.00;101097.13;2086510;28;20049;-80
2023/03/02 01:27:08;;;;;;;44.10;21.98;;;;;;;14.91;100.00;101095.34;2093977;28;20135;-79
2023/03/02 01:28:31;;;;;;;48.80;23.30;;;;;;;14.87;100.00;101090.91;2097015;28;20029;-79
2023/03/02 01:29:52;;;;;;;43.70;22.02;;;;;;;14.85;100.00;101097.97;2099054;28;20044;-80
2023/03/02 01:31:15;;;;;;;40.15;20.98;;;;;;;14.82;100.00;101098.00;2086176;28;20041;-79
2023/03/02 01:32:38;;;;;;;46.90;21.05;;;;;;;14.78;100.00;101101.50;2098440;28;20056;-79
2023/03/02 01:34:00;;;;;;;44.00;21.35;;;;;;;14.72;100.00;101094.41;2084415;28;20517;-80
2023/03/02 01:35:22;;;;;;;40.22;19.60;;;;;;;14.68;100.00;101095.28;2083832;28;20049;-79
2023/03/02 01:36:44;;;;;;;44.03;21.10;;;;;;;14.61;100.00;101088.16;2092515;28;20045;-79
2023/03/02 01:38:07;;;;;;;36.45;19.58;;;;;;;14.56;100.00;101089.03;2083212;28;20053;-79
2023/03/02 01:39:29;;;;;;;41.80;21.38;;;;;;;14.52;100.00;101093.41;2085317;28;20045;-80
2023/03/02 01:40:50;;;;;;;35.15;20.70;;;;;;;14.46;100.00;101090.72;2077990;28;20060;-80
2023/03/02 01:42:13;;;;;;;37.17;19.27;;;;;;;14.41;100.00;101087.19;2088121;28;20051;-79
2023/03/02 01:43:34;;;;;;;42.65;20.83;;;;;;;14.38;100.00;101080.94;2088537;28;20741;-79
2023/03/02 01:44:56;;;;;;;39.08;20.98;;;;;;;14.39;100.00;101080.06;2090677;28;20036;-80
2023/03/02 01:46:20;;;;;;;44.55;21.23;;;;;;;14.41;100.00;101076.53;2089676;28;20073;-79
2023/03/02 01:47:50;;;;;;;36.30;20.95;;;;;;;14.42;100.00;101070.34;2081907;28;20033;-79
2023/03/02 01:49:14;;;;;;;42.15;22.55;;;;;;;14.46;100.00;101069.47;2087442;28;20045;-80
2023/03/02 01:50:46;;;;;;;39.55;22.27;;;;;;;14.50;100.00;101073.94;2087306;28;20048;-80
2023/03/02 01:52:09;;;;;;;40.30;20.95;;;;;;;14.56;100.00;101081.94;2086134;28;20504;-80
2023/03/02 01:53:33;;;;;;;41.05;21.65;;;;;;;14.61;100.00;101087.25;2077996;28;20041;-80
2023/03/02 01:54:59;;;;;;;36.05;20.48;;;;;;;14.63;100.00;101096.16;2079794;28;20406;-79
2023/03/02 01:56:27;;;;;;;38.72;21.77;;;;;;;14.62;100.00;101103.22;2092624;28;20048;-80
2023/03/02 01:57:51;;;;;;;42.88;20.40;;;;;;;14.59;100.00;101103.19;2086340;28;20064;-80
2023/03/02 01:59:16;;;;;;;39.40;20.08;;;;;;;14.59;100.00;101110.28;2092452;28;20087;-80
2023/03/02 02:00:39;;;;;;;34.90;20.20;;;;;;;14.60;100.00;101110.28;2078539;28;20088;-80
2023/03/02 02:02:03;;;;;;;;;;;;;;;14.58;100.00;101109.38;2090834;28;20039;-80
2023/03/02 02:03:30;;;;;;;45.28;21.70;;;;;;;14.63;100.00;101115.63;2086705;28;19924;-80
2023/03/02 02:04:54;;;;;;;45.90;23.35;;;;;;;14.68;100.00;101116.53;2086249;28;20587;-79
2023/03/02 02:06:24;;;;;;;38.00;21.92;;;;;;;14.73;100.00;101121.84;2086246;28;20167;-80
2023/03/02 02:07:45;;;;;;;39.47;21.75;;;;;;;14.77;100.00;101120.13;2095109;28;20048;-79
2023/03/02 02:09:12;;;;;;;39.15;20.42;;;;;;;14.80;100.00;101122.78;2092781;28;20052;-79
2023/03/02 02:10:34;;;;;;;36.80;21.58;;;;;;;14.82;100.00;101124.56;2094733;28;20445;-79
2023/03/02 02:11:57;;;;;;;36.15;20.20;;;;;;;14.86;100.00;101121.03;2085761;28;20044;-79
2023/03/02 02:13:19;;;;;;;37.92;20.40;;;;;;;14.87;100.00;101120.16;2086242;28;20044;-79
2023/03/02 02:14:41;;;;;;;37.05;18.40;;;;;;;14.90;100.00;101122.81;2085496;28;21638;-80
2023/03/02 02:16:05;;;;;;;37.20;19.30;;;;;;;14.92;100.00;101122.81;2100069;28;20087;-79
2023/03/02 02:17:28;;;;;;;35.15;19.48;;;;;;;14.91;100.00;101119.28;2088658;28;20131;-79
2023/03/02 02:18:52;;;;;;;41.53;21.77;;;;;;;14.93;100.00;101121.94;2091433;28;20044;-79
2023/03/02 02:20:27;;;;;;;42.20;22.05;;;;;;;14.94;100.00;101119.28;2092238;28;20167;-80
2023/03/02 02:21:48;;;;;;;41.47;21.40;;;;;;;14.95;100.00;101128.16;2078465;28;20054;-79
2023/03/02 02:23:25;;;;;;;39.83;21.73;;;;;;;14.98;100.00;101130.81;2088590;28;20404;-80
2023/03/02 02:24:51;;;;;;;40.42;20.98;;;;;;;15.00;100.00;101131.72;2086875;28;20048;-79
2023/03/02 02:26:21;;;;;;;43.05;21.17;;;;;;;15.01;100.00;101134.38;2085255;28;20049;-80
2023/03/02 02:27:43;;;;;;;37.97;20.90;;;;;;;15.03;100.00;101134.41;2084227;28;20045;-79
2023/03/02 02:29:11;;;;;;;40.05;22.15;;;;;;;15.04;100.00;101131.72;2082621;28;20045;-79
2023/03/02 02:30:34;;;;;;;39.45;20.67;;;;;;;15.06;100.00;101135.28;2092264;28;20040;-79
2023/03/02 02:32:01;;;;;;;37.28;20.63;;;;;;;15.06;100.00;101140.59;2093016;28;20099;-79
2023/03/02 02:33:24;;;;;;;40.60;20.70;;;;;;;15.06;100.00;101134.41;2094661;28;20048;-80
2023/03/02 02:34:51;;;;;;;38.03;20.45;;;;;;;15.08;100.00;101138.84;2086257;28;20037;-79
2023/03/02 02:36:18;;;;;;;38.25;19.50;;;;;;;15.08;100.00;101144.16;2078180;28;20053;-80
2023/03/02 02:37:44;;;;;;;41.00;20.63;;;;;;;15.09;100.00;101145.94;2088794;28;20045;-79
2023/03/02 02:39:15;;;;;;;37.95;20.17;;;;;;;15.10;100.00;101142.38;2080124;28;20057;-79
2023/03/02 02:40:42;;;;;;;40.08;20.50;;;;;;;15.13;100.00;101145.06;2084359;28;20521;-79
2023/03/02 02:42:15;;;;;;;39.10;21.15;;;;;;;15.13;100.00;101149.50;2078114;28;20049;-79
2023/03/02 02:43:36;;;;;;;33.00;20.35;;;;;;;15.13;100.00;101145.06;2086758;28;20084;-80
2023/03/02 02:45:02;;;;;;;41.05;22.92;;;;;;;15.15;100.00;101142.41;2082261;28;20730;-79
2023/03/02 02:46:24;;;;;;;37.50;20.85;;;;;;;15.19;100.00;101148.63;2081353;28;20045;-78
2023/03/02 02:47:47;;;;;;;38.72;21.42;;;;;;;15.21;100.00;101149.50;2092981;28;20069;-79
2023/03/02 02:49:21;;;;;;;39.17;20.88;;;;;;;15.22;100.00;101145.97;2087918;28;20056;-79
2023/03/02 02:50:43;;;;;;;36.60;20.48;;;;;;;15.23;100.00;101142.44;2079855;28;20363;-80
2023/03/02 02:52:07;;;;;;;40.90;21.85;;;;;;;15.26;100.00;101142.44;2087096;28;20048;-80
2023/03/02 02:53:37;;;;;;;41.42;21.65;;;;;;;15.28;100.00;101136.25;2082309;28;20456;-79
2023/03/02 02:54:59;;;;;;;35.85;20.90;;;;;;;15.30;100.00;101141.53;2093801;28;20056;-79
2023/03/02 02:56:21;;;;;;;42.55;22.25;;;;;;;15.33;100.00;101136.25;2085943;28;20397;-80
2023/03/02 02:57:45;;;;;;;41.65;21.83;;;;;;;15.36;100.00;101137.13;2091957;28;20504;-79
2023/03/02 02:59:16;;;;;;;43.53;20.90;;;;;;;15.38;100.00;101145.13;2089910;28;20044;-79
2023/03/02 03:00:39;;;;;;;45.95;21.60;;;;;;;15.38;100.00;101140.69;2081903;28;20099;-79
2023/03/02 03:02:02;;;;;;;37.10;20.08;;;;;;;15.40;100.00;101138.03;2082063;28;20048;-80
2023/03/02 03:03:30;;;;;;;38.05;20.15;;;;;;;15.40;100.00;101138.03;2082173;28;20045;-80
2023/03/02 03:05:01;;;;;;;38.80;20.77;;;;;;;15.40;100.00;101132.72;2085965;28;20045;-80
2023/03/02 03:06:29;;;;;;;37.97;19.27;;;;;;;15.41;100.00;101142.47;2093569;28;20048;-81
2023/03/02 03:07:52;;;;;;;39.92;20.55;;;;;;;15.42;100.00;101147.81;2082746;28;20048;-79
2023/03/02 03:09:14;;;;;;;36.53;21.25;;;;;;;15.44;100.00;101143.34;2085610;28;20152;-80
2023/03/02 03:10:44;;;;;;;38.20;20.75;;;;;;;15.46;100.00;101151.34;2086215;28;20144;-80
2023/03/02 03:12:16;;;;;;;35.95;19.60;;;;;;;15.43;100.00;101148.66;2078029;28;20083;-80
2023/03/02 03:13:40;;;;;;;37.40;19.60;;;;;;;15.37;100.00;101148.66;2085400;28;20045;-79
2023/03/02 03:15:04;;;;;;;43.53;23.52;;;;;;;15.32;100.00;101143.34;2085790;28;20675;-80
2023/03/02 03:16:27;;;;;;;41.45;22.40;;;;;;;15.31;100.00;101152.19;2077781;28;20084;-80
2023/03/02 03:17:55;;;;;;;38.30;21.20;;;;;;;15.29;100.00;101156.66;2083110;28;20160;-80
2023/03/02 03:19:20;;;;;;;39.85;20.15;;;;;;;15.25;100.00;101148.63;2085477;28;20045;-79
2023/03/02 03:20:44;;;;;;;35.53;20.17;;;;;;;15.20;100.00;101158.38;2083216;28;20049;-80
2023/03/02 03:22:06;;;;;;;39.53;21.75;;;;;;;15.19;100.00;101157.47;2085513;28;20065;-79
2023/03/02 03:23:29;;;;;;;34.40;21.15;;;;;;;15.21;100.00;101152.19;2082202;28;20049;-80
2023/03/02 03:24:52;;;;;;;41.78;20.42;;;;;;;15.25;100.00;101159.28;2083966;28;20037;-80
2023/03/02 03:26:13;;;;;;;40.55;21.20;;;;;;;15.29;100.00;101163.72;2088606;28;20073;-79
2023/03/02 03:27:35;;;;;;;40.60;21.88;;;;;;;15.33;100.00;101163.72;2088222;28;20072;-79
2023/03/02 03:29:01;;;;;;;41.50;20.02;;;;;;;15.36;100.00;101157.53;2084441;28;20140;-80
2023/03/02 03:30:24;;;;;;;43.65;22.83;;;;;;;15.38;100.00;101159.31;2083047;28;20059;-80
2023/03/02 03:31:45;;;;;;;39.28;21.33;;;;;;;15.41;100.00;101161.09;2083003;28;20080;-79
2023/03/02 03:33:09;;;;;;;;;;;;;;;15.39;100.00;101163.75;2082869;28;20075;-79
2023/03/02 03:34:32;;;;;;;46.95;23.25;;;;;;;15.43;100.00;101161.97;2093196;28;19960;-80
2023/03/02 03:35:54;;;;;;;37.47;21.35;;;;;;;15.46;100.00;101167.31;2084800;28;20037;-80
2023/03/02 03:37:18;;;;;;;43.67;23.05;;;;;;;15.49;100.00;101167.34;2091723;28;20076;-79
2023/03/02 03:38:41;;;;;;;42.17;22.08;;;;;;;15.51;100.00;101174.41;2091565;28;20509;-80
2023/03/02 03:40:05;;;;;;;33.47;20.95;;;;;;;15.52;100.00;101168.25;2087257;28;20059;-80
2023/03/02 03:41:27;;;;;;;42.22;22.30;;;;;;;15.53;100.00;101174.47;2077092;28;20429;-79
2023/03/02 03:42:49;;;;;;;34.92;20.45;;;;;;;15.52;100.00;101168.25;2079530;28;20823;-80
2023/03/02 03:44:13;;;;;;;34.20;20.13;;;;;;;15.53;100.00;101175.34;2093657;28;20056;-81
2023/03/02 03:45:38;;;;;;;39.42;22.05;;;;;;;15.54;100.00;101166.47;2089314;28;20124;-79
2023/03/02 03:46:59;;;;;;;37.53;20.30;;;;;;;15.56;100.00;101163.81;2092705;28;20071;-79
2023/03/02 03:48:22;;;;;;;46.70;21.42;;;;;;;15.59;100.00;101170.91;2097228;28;20098;-80
2023/03/02 03:49:45;;;;;;;39.55;20.73;;;;;;;15.60;100.00;101175.34;2086517;28;20132;-80
2023/03/02 03:51:07;;;;;;;38.80;21.58;;;;;;;15.61;100.00;101167.38;2084704;28;20041;-80
2023/03/02 03:52:30;;;;;;;33.35;19.50;;;;;;;15.64;100.00;101169.13;2084077;28;20087;-80
2023/03/02 03:54:00;;;;;;;39.75;21.45;;;;;;;15.65;100.00;101163.81;2085915;28;20041;-79
2023/03/02 03:55:28;;;;;;;34.30;22.00;;;;;;;15.67;100.00;101166.50;2089518;28;20102;-80
2023/03/02 03:56:52;;;;;;;41.58;21.77;;;;;;;15.67;100.00;101163.84;2083873;28;20781;-79
2023/03/02 03:58:13;;;;;;;42.05;21.35;;;;;;;15.66;100.00;101165.59;2084681;28;20393;-80
2023/03/02 03:59:37;;;;;;;38.22;20.88;;;;;;;15.66;100.00;101165.59;2086232;28;20164;-79
2023/03/02 04:01:01;;;;;;;37.08;21.20;;;;;;;15.67;100.00;101164.72;2086470;28;20041;-80
2023/03/02 04:02:22;;;;;;;45.42;21.50;;;;;;;15.68;100.00;101169.16;2092889;28;20135;-79
2023/03/02 04:03:45;;;;;;;34.15;20.67;;;;;;;15.69;100.00;101164.69;2083096;28;20073;-79
2023/03/02 04:05:07;;;;;;;36.22;21.17;;;;;;;15.71;100.00;101168.25;2091614;28;20137;-79
2023/03/02 04:06:29;;;;;;;;;;;;;;;15.65;100.00;101163.81;2086855;28;20049;-80
2023/03/02 04:07:50;;;;;;;37.97;21.63;;;;;;;15.65;100.00;101166.50;2092499;28;19920;-80
2023/03/02 04:09:14;;;;;;;43.33;20.98;;;;;;;15.66;100.00;101165.59;2087894;28;20473;-80
2023/03/02 04:10:36;;;;;;;41.80;21.10;;;;;;;15.66;100.00;101160.28;2090782;28;20112;-80
2023/03/02 04:11:58;;;;;;;40.30;21.15;;;;;;;15.68;100.00;101154.97;2092301;28;20050;-79
2023/03/02 04:13:25;;;;;;;35.97;20.85;;;;;;;15.68;100.00;101155.84;2086946;28;20045;-80
2023/03/02 04:14:48;;;;;;;34.90;22.13;;;;;;;15.68;100.00;101147.88;2084239;28;20056;-80
2023/03/02 04:16:10;;;;;;;38.97;21.13;;;;;;;15.71;100.00;101157.63;2076361;28;20065;-80
2023/03/02 04:17:33;;;;;;;35.22;20.23;;;;;;;15.71;100.00;101161.16;2083624;28;20048;-79
2023/03/02 04:18:57;;;;;;;41.10;20.33;;;;;;;15.72;100.00;101156.72;2086310;28;20082;-79
2023/03/02 04:20:20;;;;;;;32.28;19.88;;;;;;;15.69;100.00;101154.94;2084504;28;20064;-79
2023/03/02 04:21:50;;;;;;;37.97;21.77;;;;;;;15.68;100.00;101153.19;2095831;28;20404;-80
2023/03/02 04:23:13;;;;;;;40.30;21.25;;;;;;;15.67;100.00;101155.84;2094895;28;20519;-80
2023/03/02 04:24:35;;;;;;;38.13;21.40;;;;;;;15.68;100.00;101163.84;2085904;28;20443;-80
2023/03/02 04:26:03;;;;;;;34.33;21.48;;;;;;;15.68;100.00;101157.63;2089375;28;20045;-80
2023/03/02 04:27:25;;;;;;;37.58;22.05;;;;;;;15.68;100.00;101154.97;2087697;28;20409;-79
2023/03/02 04:28:49;;;;;;;37.42;21.55;;;;;;;15.69;100.00;101160.28;2078618;28;20048;-80
2023/03/02 04:30:15;;;;;;;41.55;21.67;;;;;;;15.72;100.00;101160.28;2084063;28;20076;-80
2023/03/02 04:31:37;;;;;;;43.15;20.90;;;;;;;15.73;100.00;101155.84;2082171;28;20072;-79
2023/03/02 04:32:59;;;;;;;37.28;20.67;;;;;;;15.74;100.00;101160.28;2093707;28;20492;-80
2023/03/02 04:34:24;;;;;;;39.65;22.00;;;;;;;15.74;100.00;101163.84;2083800;28;20064;-79
2023/03/02 04:35:46;;;;;;;34.80;22.08;;;;;;;15.75;100.00;101165.59;2086364;28;20041;-80
2023/03/02 04:37:08;;;;;;;32.95;18.95;;;;;;;15.74;100.00;101166.50;2084751;28;20118;-79
2023/03/02 04:38:30;;;;;;;41.88;21.83;;;;;;;15.74;100.00;101166.50;2089702;28;20571;-79
2023/03/02 04:39:52;;;;;;;38.03;20.88;;;;;;;15.74;100.00;101171.84;2078683;28;20432;-79
2023/03/02 04:41:15;;;;;;;41.03;21.15;;;;;;;15.72;100.00;101160.28;2091475;28;20110;-80
2023/03/02 04:42:37;;;;;;;37.50;21.00;;;;;;;15.69;100.00;101170.03;2090372;28;20052;-78
2023/03/02 04:43:59;;;;;;;40.17;21.27;;;;;;;15.65;100.00;101170.91;2094983;28;20069;-79
2023/03/02 04:45:23;;;;;;;38.83;19.60;;;;;;;15.60;100.00;101170.91;2100314;28;20400;-79
2023/03/02 04:46:45;;;;;;;36.08;20.70;;;;;;;15.60;100.00;101189.56;2097081;28;20036;-80
2023/03/02 04:48:07;;;;;;;40.80;20.70;;;;;;;15.61;100.00;101187.78;2077133;28;20042;-79
2023/03/02 04:49:30;;;;;;;38.50;21.58;;;;;;;15.62;100.00;101189.56;2088716;28;20040;-80
2023/03/02 04:50:51;;;;;;;41.65;21.27;;;;;;;15.62;100.00;101193.09;2093038;28;20091;-80
2023/03/02 04:52:13;;;;;;;38.72;24.48;;;;;;;15.65;100.00;101189.56;2093848;28;20044;-79
2023/03/02 04:53:36;;;;;;;41.15;23.15;;;;;;;15.66;100.00;101191.34;2093617;28;20040;-80
2023/03/02 04:54:58;;;;;;;42.47;23.17;;;;;;;15.65;100.00;101198.44;2084875;28;21698;-79
2023/03/02 04:56:20;;;;;;;46.28;28.58;;;;;;;15.66;100.00;101194.88;2083745;28;20516;-80
2023/03/02 04:57:43;;;;;;;44.38;23.08;;;;;;;15.66;100.00;101192.22;2080695;28;20509;-79
2023/03/02 04:59:05;;;;;;;43.45;23.90;;;;;;;15.67;100.00;101199.31;2083958;28;20520;-80
2023/03/02 05:00:33;;;;;;;50.17;26.63;;;;;;;15.70;100.00;101201.97;2081523;28;20056;-79
2023/03/02 05:01:56;;;;;;;56.75;28.30;;;;;;;15.70;100.00;101199.31;2096838;28;20047;-78
2023/03/02 05:03:18;;;;;;;58.30;33.45;;;;;;;15.72;100.00;101197.56;2093879;28;20052;-79
2023/03/02 05:04:41;;;;;;;51.05;31.02;;;;;;;15.75;100.00;101199.34;2085604;28;20393;-79
2023/03/02 05:06:02;;;;;;;52.25;32.03;;;;;;;15.77;100.00;101198.44;2081793;28;20107;-80
2023/03/02 05:07:24;;;;;;;59.92;33.53;;;;;;;15.80;100.00;101206.44;2092276;28;20032;-79
2023/03/02 05:08:47;;;;;;;51.72;27.63;;;;;;;15.81;100.00;101200.25;2094654;28;20037;-80
2023/03/02 05:10:11;;;;;;;55.47;28.98;;;;;;;15.84;100.00;101199.34;2090426;28;20397;-80
2023/03/02 05:11:34;;;;;;;54.33;30.77;;;;;;;15.85;100.00;101202.00;2086583;28;20053;-80
2023/03/02 05:12:57;;;;;;;48.60;28.45;;;;;;;15.87;100.00;101202.91;2094978;28;20044;-80
2023/03/02 05:14:19;;;;;;;52.70;28.95;;;;;;;15.91;100.00;101203.78;2090716;28;20051;-80
2023/03/02 05:15:43;;;;;;;59.28;31.40;;;;;;;15.94;100.00;101198.47;2093981;28;20060;-81
2023/03/02 05:17:05;;;;;;;48.47;28.50;;;;;;;15.95;100.00;101211.75;2094059;28;20048;-81
2023/03/02 05:18:26;;;;;;;46.63;26.75;;;;;;;15.96;100.00;101207.34;2093733;28;20528;-79
2023/03/02 05:19:49;;;;;;;44.97;26.50;;;;;;;15.97;100.00;101208.22;2097088;28;20381;-79
2023/03/02 05:21:11;;;;;;;48.65;26.83;;;;;;;15.98;100.00;101204.69;2094264;28;20055;-80
2023/03/02 05:22:33;;;;;;;;;;;;;;;15.90;100.00;101205.56;2084823;28;20083;-80
2023/03/02 05:23:57;;;;;;;45.85;23.98;;;;;;;15.89;100.00;101206.44;2082787;28;19920;-79
2023/03/02 05:25:19;;;;;;;40.72;22.23;;;;;;;15.89;100.00;101202.88;2085752;28;20493;-79
2023/03/02 05:26:42;;;;;;;42.03;22.38;;;;;;;15.88;100.00;101202.00;2083613;28;20057;-80
2023/03/02 05:28:04;;;;;;;38.88;21.67;;;;;;;15.87;100.00;101197.59;2092640;28;20041;-79
2023/03/02 05:29:27;;;;;;;47.55;24.20;;;;;;;15.88;100.00;101203.81;2071773;28;20606;-80
2023/03/02 05:30:49;;;;;;;35.90;22.33;;;;;;;15.88;100.00;101204.66;2088586;28;20559;-79
2023/03/02 05:32:12;;;;;;;41.70;21.52;;;;;;;15.87;100.00;101202.00;2093763;28;20093;-80
2023/03/02 05:33:33;;;;;;;45.15;23.15;;;;;;;15.87;100.00;101205.56;2085349;28;20074;-80
2023/03/02 05:34:56;;;;;;;47.85;24.23;;;;;;;15.89;100.00;101203.78;2090473;28;20124;-79
2023/03/02 05:36:18;;;;;;;44.47;24.48;;;;;;;15.92;100.00;101205.56;2084535;28;20045;-79
2023/03/02 05:37:43;;;;;;;43.85;23.42;;;;;;;15.95;100.00;101206.44;2097833;28;20056;-79
2023/03/02 05:39:07;;;;;;;37.85;22.55;;;;;;;16.01;100.00;101204.69;2096426;28;20085;-79
2023/03/02 05:40:29;;;;;;;40.47;21.80;;;;;;;16.07;100.00;101204.69;2093315;28;20492;-79
2023/03/02 05:41:52;;;;;;;45.60;22.73;;;;;;;16.11;100.00;101202.03;2086008;28;20530;-80
2023/03/02 05:43:15;;;;;;;38.67;21.00;;;;;;;16.16;100.00;101202.00;2089331;28;20483;-80
2023/03/02 05:44:38;;;;;;;38.10;21.63;;;;;;;16.21;100.00;101202.94;2086916;28;20103;-80
2023/03/02 05:46:01;;;;;;;41.50;21.50;;;;;;;16.26;100.00;101211.78;2095327;28;20425;-80
2023/03/02 05:47:23;;;;;;;39.22;22.05;;;;;;;16.29;100.00;101206.44;2099123;28;20086;-79
2023/03/02 05:48:46;;;;;;;40.47;22.70;;;;;;;16.35;100.00;101207.31;2086365;28;20037;-81
2023/03/02 05:50:09;;;;;;;46.03;21.88;;;;;;;16.41;100.00;101210.91;2091668;28;20048;-81
2023/03/02 05:51:31;;;;;;;38.45;20.90;;;;;;;16.46;100.00;101202.00;2094368;28;20052;-80
2023/03/02 05:52:53;;;;;;;36.78;20.17;;;;;;;16.49;100.00;101207.31;2094227;28;20044;-81
2023/03/02 05:54:15;;;;;;;37.63;20.73;;;;;;;16.50;100.00;101209.09;2085863;28;20045;-80
2023/03/02 05:55:36;;;;;;;41.15;19.23;;;;;;;16.54;100.00;101207.34;2083233;28;20052;-80
2023/03/02 05:56:59;;;;;;;38.92;22.20;;;;;;;16.57;100.00;101210.88;2091403;28;20044;-80
2023/03/02 05:58:20;;;;;;;125.47;68.53;;;;;;;16.60;100.00;101210.91;2093934;28;20447;-80
2023/03/02 05:59:45;;;;;;;314.35;179.15;;;;;;;16.62;100.00;101211.78;2085604;28;20049;-80
2023/03/02 06:01:11;;;;;;;253.85;142.02;;;;;;;16.67;100.00;101212.63;2084089;28;20536;-80
2023/03/02 06:02:32;;;;;;;148.32;86.60;;;;;;;16.69;100.00;101210.88;2083947;28;20731;-80
2023/03/02 06:03:54;;;;;;;72.47;40.10;;;;;;;16.72;100.00;101210.00;2077416;28;20051;-80
2023/03/02 06:05:18;;;;;;;52.92;31.55;;;;;;;16.74;100.00;101214.41;2083433;28;20052;-80
2023/03/02 06:06:40;;;;;;;47.63;26.00;;;;;;;16.79;100.00;101210.84;2077824;28;20042;-80
2023/03/02 06:08:03;;;;;;;46.78;25.83;;;;;;;16.81;100.00;101214.38;2083592;28;20037;-80
2023/03/02 06:09:24;;;;;;;42.95;23.67;;;;;;;16.82;100.00;101209.06;2086096;28;20375;-80
2023/03/02 06:10:49;;;;;;;45.58;22.38;;;;;;;16.84;100.00;101217.06;2085379;28;20048;-80
2023/03/02 06:12:12;;;;;;;38.45;20.92;;;;;;;16.85;100.00;101218.84;2088713;28;20060;-81
2023/03/02 06:13:33;;;;;;;41.40;21.08;;;;;;;16.87;100.00;101222.41;2094293;28;20123;-80
2023/03/02 06:14:55;;;;;;;52.28;24.75;;;;;;;16.86;100.00;101221.50;2080360;28;20559;-81
2023/03/02 06:16:19;;;;;;;45.45;24.45;;;;;;;16.90;100.00;101217.03;2075500;28;20824;-80